Time;durP1;ratioP1;P1;durP2;ratioP2;P2;SDS_P1;SDS_P2;PMS_P1;PMS_P2;Temp;Humidity;BMP_temperature;BMP_pressure;BME280_temperature;BME280_humidity;BME280_pressure;Samples;Min_cycle;Max_cycle;Signal;HPM_P1;HPM_P2
2023/10/25 00:01:50;;;;;;;6.78;3.53;;;;;;;21.08;61.22;99984.44;4898431;29;20411;-59
2023/10/25 00:04:18;;;;;;;5.68;3.38;;;;;;;21.08;61.12;99973.66;4898639;29;20048;-59
2023/10/25 00:06:45;;;;;;;4.65;3.33;;;;;;;21.08;61.15;99987.13;4898492;29;20510;-59
2023/10/25 00:09:13;;;;;;;5.40;3.35;;;;;;;21.09;61.12;99982.56;4898204;29;20048;-59
2023/10/25 00:11:40;;;;;;;4.03;2.88;;;;;;;21.08;61.22;99983.59;4898004;29;20045;-59
2023/10/25 00:14:08;;;;;;;5.00;3.30;;;;;;;21.08;61.16;99987.13;4898190;29;20049;-59
2023/10/25 00:16:35;;;;;;;4.00;3.00;;;;;;;21.08;61.15;99983.59;4898004;29;20056;-59
2023/10/25 00:19:03;;;;;;;4.28;3.20;;;;;;;21.07;61.16;99971.97;4866130;29;20049;-57
2023/10/25 00:21:30;;;;;;;5.05;3.58;;;;;;;21.08;61.18;99959.38;4897953;29;20044;-57
2023/10/25 00:23:58;;;;;;;3.55;2.97;;;;;;;21.08;61.16;99960.19;4897777;29;20049;-58
2023/10/25 00:26:25;;;;;;;4.22;3.25;;;;;;;21.08;61.13;99957.50;4898150;29;20075;-58
2023/10/25 00:28:54;;;;;;;3.70;2.90;;;;;;;21.07;61.13;99953.16;4897782;29;20057;-58
2023/10/25 00:31:21;;;;;;;5.65;3.50;;;;;;;21.07;61.12;99953.16;4897686;29;20040;-58
2023/10/25 00:33:50;;;;;;;4.22;2.83;;;;;;;21.07;61.15;99945.06;4880439;29;20064;-57
2023/10/25 00:36:17;;;;;;;4.45;3.22;;;;;;;21.08;61.12;99951.28;4897978;29;20387;-57
2023/10/25 00:38:45;;;;;;;3.40;3.10;;;;;;;21.06;61.18;99956.81;4898000;29;20059;-57
2023/10/25 00:41:12;;;;;;;4.82;3.50;;;;;;;21.08;61.06;99951.28;4880555;29;20414;-57
2023/10/25 00:43:39;;;;;;;3.90;2.72;;;;;;;21.07;61.12;99949.63;4896219;29;20067;-57
2023/10/25 00:46:11;;;;;;;4.60;2.88;;;;;;;21.08;61.06;99959.38;4897486;29;20053;-57
2023/10/25 00:48:45;;;;;;;5.78;2.88;;;;;;;21.06;61.03;99948.75;4900228;29;20063;-57
2023/10/25 00:51:14;;;;;;;3.55;2.83;;;;;;;21.06;61.07;99962.19;4901447;29;20053;-57
2023/10/25 00:53:45;;;;;;;4.38;3.05;;;;;;;21.06;61.01;99962.19;4901462;29;20052;-57
2023/10/25 00:56:15;;;;;;;4.53;3.03;;;;;;;21.05;61.01;99962.38;4899827;29;20067;-56
2023/10/25 00:58:47;;;;;;;4.03;3.00;;;;;;;21.06;61.02;99958.66;4884550;29;20053;-56
2023/10/25 01:01:15;;;;;;;3.80;2.80;;;;;;;21.06;61.04;99953.28;4901460;29;20056;-57
2023/10/25 01:03:43;;;;;;;4.97;3.13;;;;;;;21.06;60.95;99948.75;4899657;29;20120;-57
2023/10/25 01:06:11;;;;;;;4.30;2.60;;;;;;;21.05;60.93;99947.06;4899890;29;20057;-57
2023/10/25 01:08:38;;;;;;;4.03;2.70;;;;;;;21.05;60.97;99930.91;4901669;29;20522;-57
2023/10/25 01:11:06;;;;;;;6.63;2.58;;;;;;;21.05;60.99;99940.84;4884770;29;20048;-57
2023/10/25 01:13:34;;;;;;;4.72;2.85;;;;;;;21.04;61.01;99940.00;4901464;29;20052;-57
2023/10/25 01:16:01;;;;;;;5.28;3.15;;;;;;;21.06;60.97;99939.84;4885476;29;20064;-58
2023/10/25 01:18:29;;;;;;;4.68;2.65;;;;;;;21.06;61.05;99950.59;4901374;29;20408;-58
2023/10/25 01:20:57;;;;;;;4.03;2.75;;;;;;;21.05;60.97;99946.22;4899372;29;20060;-58
2023/10/25 01:23:24;;;;;;;4.00;2.35;;;;;;;21.05;60.96;99947.06;4883368;29;20501;-58
2023/10/25 01:25:52;;;;;;;4.38;2.40;;;;;;;21.06;61.00;99950.59;4899260;29;20052;-58
2023/10/25 01:28:19;;;;;;;4.70;2.92;;;;;;;21.05;60.94;99949.75;4900631;29;20048;-58
2023/10/25 01:30:47;;;;;;;4.10;2.42;;;;;;;21.05;60.97;99943.53;4900635;29;20434;-58
2023/10/25 01:33:14;;;;;;;3.50;2.67;;;;;;;21.04;60.97;99945.38;4900599;29;20396;-57
2023/10/25 01:35:41;;;;;;;3.63;2.88;;;;;;;21.05;60.96;99939.00;4901032;29;20403;-57
2023/10/25 01:38:09;;;;;;;4.05;2.88;;;;;;;21.05;60.93;99938.16;4900504;29;20061;-57
2023/10/25 01:40:38;;;;;;;3.50;2.60;;;;;;;21.05;60.92;99943.53;4900836;29;20045;-57
2023/10/25 01:43:05;;;;;;;3.85;2.28;;;;;;;21.05;60.98;99944.38;4900557;29;20048;-57
2023/10/25 01:45:32;;;;;;;4.13;2.42;;;;;;;21.04;60.92;99923.03;4901122;29;20056;-58
2023/10/25 01:48:00;;;;;;;3.65;2.35;;;;;;;21.04;60.82;99945.38;4883488;29;20048;-58
2023/10/25 01:50:27;;;;;;;3.05;2.40;;;;;;;21.04;60.97;99926.56;4900910;29;20048;-58
2023/10/25 01:52:55;;;;;;;3.13;2.55;;;;;;;21.04;60.90;99925.72;4900366;29;20048;-58
2023/10/25 01:55:22;;;;;;;3.70;2.35;;;;;;;21.04;60.85;99909.56;4899392;29;20057;-58
2023/10/25 01:57:49;;;;;;;3.80;1.90;;;;;;;21.04;60.85;99926.56;4883097;29;20067;-59
2023/10/25 02:00:17;;;;;;;3.53;2.10;;;;;;;21.04;60.92;99904.19;4882759;29;20428;-59
2023/10/25 02:02:44;;;;;;;4.35;3.00;;;;;;;21.04;60.83;99907.72;4900277;29;20045;-59
2023/10/25 02:05:12;;;;;;;3.63;1.75;;;;;;;21.04;60.92;99905.03;4883066;29;20529;-58
2023/10/25 02:07:40;;;;;;;3.92;2.20;;;;;;;21.03;60.87;99919.50;4899679;29;20072;-58
2023/10/25 02:10:08;;;;;;;3.45;2.15;;;;;;;21.03;60.86;99911.44;4900193;29;20517;-58
2023/10/25 02:12:35;;;;;;;3.10;2.10;;;;;;;21.04;60.89;99907.72;4882590;29;20044;-58
2023/10/25 02:15:03;;;;;;;3.20;1.80;;;;;;;21.02;60.89;99908.88;4882699;29;20048;-59
2023/10/25 02:17:30;;;;;;;3.60;1.95;;;;;;;21.02;60.82;99917.78;4889363;29;20057;-59
2023/10/25 02:19:58;;;;;;;2.97;2.03;;;;;;;21.03;60.75;99930.25;4899610;29;20405;-59
2023/10/25 02:22:25;;;;;;;3.42;2.30;;;;;;;21.03;60.83;99922.19;4900190;29;20044;-59
2023/10/25 02:24:53;;;;;;;3.33;2.17;;;;;;;21.04;60.68;99914.94;4900141;29;20438;-59
2023/10/25 02:27:20;;;;;;;2.65;2.00;;;;;;;21.03;60.75;99924.88;4891578;29;20495;-59
2023/10/25 02:29:49;;;;;;;2.80;1.98;;;;;;;21.03;60.53;99918.66;4899405;29;20057;-59
2023/10/25 02:32:16;;;;;;;3.83;1.90;;;;;;;21.02;60.83;99927.72;4867202;29;20067;-58
2023/10/25 02:34:44;;;;;;;2.95;2.03;;;;;;;21.01;60.76;99932.25;4882507;29;20053;-58
2023/10/25 02:37:11;;;;;;;2.75;1.67;;;;;;;21.01;60.80;99929.56;4899796;29;20059;-58
2023/10/25 02:39:39;;;;;;;3.25;2.00;;;;;;;21.01;60.82;99937.63;4897645;29;20056;-58
2023/10/25 02:42:06;;;;;;;3.03;2.05;;;;;;;21.03;60.73;99932.94;4882016;29;20060;-58
2023/10/25 02:44:34;;;;;;;3.75;2.47;;;;;;;21.02;60.71;99927.72;4899506;29;20411;-59
2023/10/25 02:47:02;;;;;;;3.28;2.08;;;;;;;21.01;60.70;99932.25;4890921;29;20044;-59
2023/10/25 02:49:29;;;;;;;3.55;2.08;;;;;;;21.03;60.66;99934.81;4899635;29;20051;-59
2023/10/25 02:51:56;;;;;;;3.05;2.05;;;;;;;21.01;60.75;99926.88;4897095;29;20052;-59
2023/10/25 02:54:24;;;;;;;2.72;2.10;;;;;;;21.01;60.61;99926.03;4899647;29;20048;-58
2023/10/25 02:56:51;;;;;;;8.80;2.38;;;;;;;21.01;60.74;99928.72;4890834;29;20055;-58
2023/10/25 02:59:19;;;;;;;3.65;1.75;;;;;;;21.00;60.67;99946.72;4897368;29;20407;-58
2023/10/25 03:01:46;;;;;;;2.58;1.77;;;;;;;21.00;60.66;99952.09;4899333;29;20487;-58
2023/10/25 03:04:14;;;;;;;2.97;1.98;;;;;;;21.01;60.62;99926.88;4897390;29;20059;-59
2023/10/25 03:06:41;;;;;;;2.90;2.08;;;;;;;21.00;60.63;99911.75;4873549;29;20063;-59
2023/10/25 03:09:09;;;;;;;2.47;1.70;;;;;;;21.00;60.67;99919.81;4897349;29;20060;-59
2023/10/25 03:11:37;;;;;;;3.00;2.03;;;;;;;21.00;60.63;99930.59;4896271;29;20396;-59
2023/10/25 03:14:04;;;;;;;3.13;1.80;;;;;;;20.99;60.59;99926.22;4898772;29;20048;-58
2023/10/25 03:16:32;;;;;;;3.20;1.90;;;;;;;21.00;60.62;99925.19;4881753;29;20436;-58
2023/10/25 03:18:59;;;;;;;3.10;2.15;;;;;;;20.99;60.52;99928.91;4897005;29;20063;-58
2023/10/25 03:21:26;;;;;;;2.90;1.73;;;;;;;20.99;60.54;99936.97;4898613;29;20066;-58
2023/10/25 03:23:54;;;;;;;2.50;1.80;;;;;;;20.99;60.56;99935.13;4882041;29;20060;-58
2023/10/25 03:26:21;;;;;;;2.60;1.83;;;;;;;20.98;60.60;99922.69;4890181;29;20060;-57
2023/10/25 03:28:50;;;;;;;2.85;1.70;;;;;;;20.98;60.61;99919.13;4899036;29;20056;-58
2023/10/25 03:31:17;;;;;;;2.67;1.80;;;;;;;20.99;60.52;99928.91;4896642;29;20060;-58
2023/10/25 03:33:47;;;;;;;2.85;1.80;;;;;;;20.99;60.58;99928.91;4897963;29;20059;-58
2023/10/25 03:36:14;;;;;;;3.50;1.67;;;;;;;20.98;60.50;99937.97;4898007;29;20064;-59
2023/10/25 03:38:42;;;;;;;2.58;1.70;;;;;;;20.99;60.50;99934.28;4898921;29;20053;-61
2023/10/25 03:41:09;;;;;;;2.63;1.85;;;;;;;20.98;60.55;99932.56;4881941;29;20056;-60
2023/10/25 03:43:37;;;;;;;2.80;1.60;;;;;;;20.98;60.53;99940.66;4898672;29;20044;-59
2023/10/25 03:46:05;;;;;;;2.80;1.80;;;;;;;20.98;60.51;99941.53;4897930;29;20057;-57
2023/10/25 03:48:35;;;;;;;2.65;1.70;;;;;;;20.98;60.52;99940.66;4898072;29;20454;-57
2023/10/25 03:51:04;;;;;;;2.47;1.77;;;;;;;20.99;60.36;99955.81;4898116;29;20400;-58
2023/10/25 03:53:36;;;;;;;2.40;1.67;;;;;;;20.98;60.44;99948.72;4898410;29;20060;-59
2023/10/25 03:56:03;;;;;;;2.95;1.90;;;;;;;20.98;60.50;99938.84;4881541;29;20131;-58
2023/10/25 03:58:31;;;;;;;2.75;1.58;;;;;;;20.98;60.53;99944.22;4896177;29;20530;-58
2023/10/25 04:01:03;;;;;;;2.92;1.70;;;;;;;20.98;60.51;99948.72;4898416;29;20514;-59
2023/10/25 04:03:36;;;;;;;2.88;1.77;;;;;;;20.97;60.43;99937.13;4898449;29;20056;-59
2023/10/25 04:06:04;;;;;;;3.55;2.10;;;;;;;20.97;60.41;99938.97;4881757;29;20056;-59
2023/10/25 04:08:32;;;;;;;2.95;1.95;;;;;;;20.97;60.45;99941.66;4898227;29;20056;-59
2023/10/25 04:11:00;;;;;;;2.72;2.03;;;;;;;20.97;60.44;99952.44;4877405;29;20067;-60
2023/10/25 04:13:27;;;;;;;2.50;1.70;;;;;;;20.96;60.26;99938.13;4898310;29;20056;-59
2023/10/25 04:16:02;;;;;;;3.90;1.52;;;;;;;20.97;60.31;99941.66;4898018;29;20052;-58
2023/10/25 04:18:31;;;;;;;3.33;1.90;;;;;;;20.96;60.41;99956.13;4865836;29;20055;-58
2023/10/25 04:21:00;;;;;;;3.53;2.20;;;;;;;20.96;60.41;99966.91;4881562;29;20044;-58
2023/10/25 04:23:31;;;;;;;3.58;1.67;;;;;;;20.96;60.42;99961.50;4881061;29;20056;-60
2023/10/25 04:26:07;;;;;;;2.80;1.83;;;;;;;20.97;60.39;99949.75;4897659;29;20061;-59
2023/10/25 04:28:36;;;;;;;3.20;1.80;;;;;;;20.96;60.24;99958.81;4897707;29;20044;-59
2023/10/25 04:31:04;;;;;;;2.70;1.60;;;;;;;20.96;60.31;99951.59;4897973;29;20048;-59
2023/10/25 04:33:32;;;;;;;2.25;1.60;;;;;;;20.95;60.26;99959.84;4898049;29;20426;-59
2023/10/25 04:35:59;;;;;;;3.53;1.73;;;;;;;20.96;60.27;99958.81;4880575;29;20507;-59
2023/10/25 04:38:27;;;;;;;3.30;1.63;;;;;;;20.96;60.27;99961.50;4897722;29;20053;-59
2023/10/25 04:40:55;;;;;;;2.55;1.48;;;;;;;20.95;60.21;99952.59;4897881;29;20059;-59
2023/10/25 04:43:22;;;;;;;2.70;1.67;;;;;;;20.95;60.40;99963.38;4898167;29;20068;-59
2023/10/25 04:45:51;;;;;;;2.83;1.50;;;;;;;20.95;60.28;99965.22;4897836;29;20048;-59
2023/10/25 04:48:19;;;;;;;2.42;1.75;;;;;;;20.96;60.25;99961.50;4897687;29;20055;-59
2023/10/25 04:50:46;;;;;;;2.17;1.33;;;;;;;20.95;60.24;99954.47;4898031;29;20059;-59
2023/10/25 04:53:14;;;;;;;2.67;1.73;;;;;;;20.96;60.20;99965.03;4898021;29;20049;-59
2023/10/25 04:55:45;;;;;;;2.60;1.67;;;;;;;20.96;60.24;99972.28;4881212;29;20418;-59
2023/10/25 04:58:13;;;;;;;5.65;1.80;;;;;;;20.96;60.15;99964.22;4893998;29;20410;-59
2023/10/25 05:00:41;;;;;;;2.47;1.48;;;;;;;20.95;60.24;99963.38;4898198;29;20071;-59
2023/10/25 05:03:11;;;;;;;4.13;1.58;;;;;;;20.96;60.26;99969.59;4897662;29;20057;-59
2023/10/25 05:05:39;;;;;;;1.92;1.35;;;;;;;20.96;60.26;99972.28;4897451;29;20049;-60
2023/10/25 05:08:07;;;;;;;3.47;1.40;;;;;;;20.96;60.26;99966.91;4897798;29;20048;-59
2023/10/25 05:10:35;;;;;;;2.65;1.77;;;;;;;20.97;60.22;99973.97;4888768;29;20053;-59
2023/10/25 05:13:03;;;;;;;3.53;1.52;;;;;;;20.96;60.26;99972.28;4897456;29;20041;-59
2023/10/25 05:15:35;;;;;;;3.17;1.48;;;;;;;20.95;60.34;99966.06;4896551;29;20053;-58
2023/10/25 05:18:03;;;;;;;3.97;2.00;;;;;;;20.95;60.21;99957.16;4897947;29;20044;-58
2023/10/25 05:20:31;;;;;;;2.97;1.90;;;;;;;20.94;60.21;99964.38;4880947;29;20056;-58
2023/10/25 05:23:03;;;;;;;2.25;1.50;;;;;;;20.94;60.24;99968.88;4897101;29;20060;-59
2023/10/25 05:25:32;;;;;;;2.65;1.50;;;;;;;20.95;60.16;99975.97;4879108;29;20053;-60
2023/10/25 05:28:01;;;;;;;3.08;1.50;;;;;;;20.95;60.21;99982.19;4897469;29;20060;-60
2023/10/25 05:30:28;;;;;;;3.42;1.95;;;;;;;20.95;60.22;99982.19;4897628;29;20059;-60
2023/10/25 05:33:03;;;;;;;2.72;1.75;;;;;;;20.95;60.17;99975.97;4897270;29;20070;-60
2023/10/25 05:35:31;;;;;;;3.78;1.90;;;;;;;20.95;60.25;99986.75;4900373;29;20053;-60
2023/10/25 05:37:59;;;;;;;3.78;1.98;;;;;;;20.94;60.16;99980.53;4900626;29;20064;-60
2023/10/25 05:40:26;;;;;;;2.70;1.75;;;;;;;20.94;60.08;99971.59;4900592;29;20048;-60
2023/10/25 05:42:56;;;;;;;2.83;1.75;;;;;;;20.94;60.24;99974.28;4900700;29;20459;-60
2023/10/25 05:45:23;;;;;;;2.58;1.70;;;;;;;20.94;60.21;99979.66;4896595;29;20518;-59
2023/10/25 05:47:51;;;;;;;3.15;1.92;;;;;;;20.93;60.17;99989.56;4900833;29;20059;-59
2023/10/25 05:50:19;;;;;;;2.40;1.50;;;;;;;20.93;60.10;99984.19;4883901;29;20071;-59
2023/10/25 05:52:46;;;;;;;3.75;1.92;;;;;;;20.94;60.11;99974.28;4900658;29;20052;-59
2023/10/25 05:55:15;;;;;;;2.85;1.90;;;;;;;20.93;60.29;99978.81;4896325;29;20055;-60
2023/10/25 05:57:43;;;;;;;3.38;1.70;;;;;;;20.92;60.22;99979.81;4900649;29;20410;-60
2023/10/25 06:00:11;;;;;;;3.08;1.80;;;;;;;20.93;60.16;99978.81;4900194;29;20079;-60
2023/10/25 06:02:41;;;;;;;2.90;1.88;;;;;;;20.94;60.22;99995.78;4900320;29;20049;-59
2023/10/25 06:05:12;;;;;;;3.03;2.08;;;;;;;20.92;60.14;99998.66;4900250;29;20491;-59
2023/10/25 06:07:41;;;;;;;2.65;1.95;;;;;;;20.93;60.18;100016.47;4892203;29;20053;-60
2023/10/25 06:10:09;;;;;;;2.97;1.85;;;;;;;20.93;60.17;100012.94;4900336;29;20052;-60
2023/10/25 06:12:37;;;;;;;3.10;1.85;;;;;;;20.93;60.06;100004.88;4899886;29;20053;-60
2023/10/25 06:15:05;;;;;;;2.58;1.75;;;;;;;20.92;60.06;100009.44;4900013;29;20056;-59
2023/10/25 06:17:33;;;;;;;3.50;1.60;;;;;;;20.92;60.19;100011.28;4900043;29;20048;-58
2023/10/25 06:20:01;;;;;;;3.15;1.90;;;;;;;20.93;60.17;100010.25;4900364;29;20054;-59
2023/10/25 06:22:28;;;;;;;2.75;1.95;;;;;;;20.93;60.21;99996.81;4899734;29;20057;-59
2023/10/25 06:24:55;;;;;;;3.00;2.05;;;;;;;20.91;60.10;99999.69;4899231;29;20053;-59
2023/10/25 06:27:23;;;;;;;3.47;2.10;;;;;;;20.93;60.14;100010.25;4899964;29;20048;-59
2023/10/25 06:29:50;;;;;;;3.47;2.10;;;;;;;20.91;60.14;99996.97;4899827;29;20056;-59
2023/10/25 06:32:18;;;;;;;4.25;2.40;;;;;;;20.92;60.03;99989.75;4899643;29;20052;-59
2023/10/25 06:34:45;;;;;;;3.78;2.50;;;;;;;20.93;60.07;99999.50;4900045;29;20048;-59
2023/10/25 06:37:13;;;;;;;3.35;2.55;;;;;;;20.91;59.99;100004.22;4899808;29;20048;-59
2023/10/25 06:39:40;;;;;;;3.60;2.20;;;;;;;20.90;59.97;99995.31;4899515;29;20068;-59
2023/10/25 06:42:10;;;;;;;2.90;2.20;;;;;;;20.92;60.05;100003.19;4899445;29;20055;-59
2023/10/25 06:44:37;;;;;;;4.28;2.17;;;;;;;20.91;59.98;100006.91;4899682;29;20076;-60
2023/10/25 06:47:08;;;;;;;3.70;1.92;;;;;;;20.91;60.10;99998.84;4899490;29;20044;-60
2023/10/25 06:49:36;;;;;;;5.45;2.63;;;;;;;20.91;60.06;100010.44;4898716;29;20053;-59
2023/10/25 06:52:04;;;;;;;3.40;2.42;;;;;;;20.92;60.04;100011.28;4898230;29;20048;-59
2023/10/25 06:54:32;;;;;;;3.45;2.42;;;;;;;20.92;60.07;100024.72;4898553;29;20045;-59
2023/10/25 06:57:00;;;;;;;3.13;2.10;;;;;;;20.91;60.00;100028.44;4899329;29;20056;-59
2023/10/25 06:59:27;;;;;;;4.72;2.17;;;;;;;20.91;60.10;100018.50;4899287;29;20052;-59
2023/10/25 07:02:20;;;;;;;4.75;2.22;;;;;;;20.92;60.10;100022.03;4899109;29;20056;-59
2023/10/25 07:04:56;;;;;;;4.07;2.30;;;;;;;20.92;59.99;100016.66;4891722;29;20064;-61
2023/10/25 07:07:30;;;;;;;4.72;2.47;;;;;;;20.93;60.06;100023.72;4899439;29;20380;-61
2023/10/25 07:09:58;;;;;;;2.90;1.88;;;;;;;20.93;59.94;100018.34;4899330;29;20499;-60
2023/10/25 07:12:25;;;;;;;4.85;2.22;;;;;;;20.92;59.98;100020.19;4899029;29;20049;-60
2023/10/25 07:14:53;;;;;;;4.72;2.53;;;;;;;20.92;59.95;100022.88;4898991;29;20053;-59
2023/10/25 07:17:20;;;;;;;3.53;2.33;;;;;;;20.92;59.96;100024.72;4898706;29;20065;-59
2023/10/25 07:19:47;;;;;;;5.22;2.10;;;;;;;20.91;59.98;100029.28;4895034;29;20049;-60
2023/10/25 07:22:15;;;;;;;2.70;1.88;;;;;;;20.91;59.83;100037.34;4898767;29;20392;-60
2023/10/25 07:24:42;;;;;;;3.33;2.33;;;;;;;20.91;59.97;100039.19;4898730;29;20048;-58
2023/10/25 07:27:10;;;;;;;3.95;2.47;;;;;;;20.91;59.95;100029.28;4898568;29;20048;-57
2023/10/25 07:29:39;;;;;;;4.25;2.67;;;;;;;20.91;60.06;100034.66;4877929;29;20045;-58
2023/10/25 07:32:06;;;;;;;3.58;2.13;;;;;;;20.91;59.92;100017.66;4898773;29;20044;-57
2023/10/25 07:34:34;;;;;;;4.40;2.38;;;;;;;20.91;60.06;100023.06;4898843;29;20059;-59
2023/10/25 07:37:02;;;;;;;3.55;2.00;;;;;;;20.91;60.03;100026.59;4898517;29;20044;-59
2023/10/25 07:39:29;;;;;;;3.38;2.05;;;;;;;20.91;59.96;100029.28;4898731;29;20055;-59
2023/10/25 07:41:57;;;;;;;3.58;2.25;;;;;;;20.90;59.90;100030.28;4898512;29;20059;-59
2023/10/25 07:44:24;;;;;;;3.47;2.10;;;;;;;20.91;59.83;100033.81;4898538;29;20041;-59
2023/10/25 07:46:51;;;;;;;3.10;2.25;;;;;;;20.90;59.87;100037.47;4898353;29;20411;-59
2023/10/25 07:49:19;;;;;;;3.67;2.15;;;;;;;20.90;59.86;100035.66;4898366;29;20051;-59
2023/10/25 07:51:46;;;;;;;4.00;2.20;;;;;;;20.90;59.88;100041.03;4898662;29;20067;-59
2023/10/25 07:54:14;;;;;;;3.42;1.90;;;;;;;20.91;59.77;100039.19;4898022;29;20071;-58
2023/10/25 07:56:42;;;;;;;3.92;2.95;;;;;;;20.90;59.81;100038.34;4897735;29;20056;-58
2023/10/25 07:59:12;;;;;;;4.18;2.17;;;;;;;20.91;59.94;100033.81;4898233;29;20056;-58
2023/10/25 08:01:40;;;;;;;3.75;2.15;;;;;;;20.89;59.90;100036.66;4897744;29;20060;-58
2023/10/25 08:04:07;;;;;;;4.15;2.15;;;;;;;20.90;59.77;100046.44;4898359;29;20052;-57
2023/10/25 08:06:35;;;;;;;3.80;2.45;;;;;;;20.89;59.89;100044.72;4898374;29;20044;-58
2023/10/25 08:09:02;;;;;;;3.70;2.55;;;;;;;20.89;59.76;100042.03;4898465;29;20064;-58
2023/10/25 08:11:34;;;;;;;4.13;2.28;;;;;;;20.88;59.82;100043.03;4898149;29;20056;-58
2023/10/25 08:14:02;;;;;;;3.63;2.60;;;;;;;20.90;59.92;100053.63;4898336;29;20514;-58
2023/10/25 08:16:30;;;;;;;3.72;2.20;;;;;;;20.89;59.95;100038.50;4898254;29;20055;-58
2023/10/25 08:18:58;;;;;;;2.95;2.15;;;;;;;20.89;59.75;100039.34;4898372;29;20051;-58
2023/10/25 08:21:25;;;;;;;3.67;2.50;;;;;;;20.89;59.53;100046.56;4898138;29;20055;-58
2023/10/25 08:23:52;;;;;;;3.22;2.17;;;;;;;20.88;59.74;100044.88;4898037;29;20067;-58
2023/10/25 08:26:21;;;;;;;4.80;2.70;;;;;;;20.89;59.74;100052.78;4898382;29;20040;-58
2023/10/25 08:28:49;;;;;;;3.75;2.35;;;;;;;20.89;59.80;100051.94;4897995;29;20051;-58
2023/10/25 08:31:18;;;;;;;4.07;2.78;;;;;;;20.89;59.75;100035.81;4897825;29;20060;-58
2023/10/25 08:33:46;;;;;;;4.95;2.20;;;;;;;20.88;59.76;100032.28;4898304;29;20398;-57
2023/10/25 08:36:13;;;;;;;3.22;2.30;;;;;;;20.88;59.86;100018.00;4897559;29;20052;-58
2023/10/25 08:38:40;;;;;;;3.67;2.42;;;;;;;20.88;59.80;100009.91;4897822;29;20044;-58
2023/10/25 08:41:09;;;;;;;4.22;2.58;;;;;;;20.88;59.76;100023.38;4898092;29;20055;-57
2023/10/25 08:43:38;;;;;;;3.10;2.15;;;;;;;20.89;59.73;100033.97;4897973;29;20077;-58
2023/10/25 08:46:05;;;;;;;3.65;2.22;;;;;;;20.89;59.65;100041.19;4896842;29;20391;-59
2023/10/25 08:48:33;;;;;;;3.90;2.67;;;;;;;20.89;59.90;100030.44;4898190;29;20045;-59
2023/10/25 08:51:01;;;;;;;4.28;2.60;;;;;;;20.89;59.74;100022.34;4898116;29;20049;-59
2023/10/25 08:53:30;;;;;;;4.32;2.22;;;;;;;20.89;59.79;100022.34;4897852;29;20048;-58
2023/10/25 08:55:58;;;;;;;5.63;2.53;;;;;;;20.88;59.64;100029.59;4897528;29;20053;-58
2023/10/25 08:58:25;;;;;;;3.65;2.33;;;;;;;20.89;59.79;100030.44;4897514;29;20051;-58
2023/10/25 09:00:55;;;;;;;4.75;2.67;;;;;;;20.89;59.82;100025.88;4897104;29;20056;-57
2023/10/25 09:03:31;;;;;;;4.70;2.70;;;;;;;20.90;59.73;100018.66;4897696;29;20054;-57
2023/10/25 09:06:04;;;;;;;4.10;2.08;;;;;;;20.89;59.66;100022.34;4893146;29;20071;-57
2023/10/25 09:08:32;;;;;;;6.03;2.53;;;;;;;20.89;59.86;100025.03;4897886;29;20048;-57
2023/10/25 09:11:02;;;;;;;4.07;2.20;;;;;;;20.93;59.77;100023.72;4899677;29;20053;-58
2023/10/25 09:13:35;;;;;;;3.03;2.13;;;;;;;20.92;59.89;100019.34;4900447;29;20053;-57
2023/10/25 09:16:09;;;;;;;3.72;2.45;;;;;;;20.93;60.01;100016.47;4900750;29;20048;-57
2023/10/25 09:18:38;;;;;;;6.95;3.78;;;;;;;20.94;59.84;100022.72;4900998;29;20059;-57
2023/10/25 09:21:07;;;;;;;8.35;3.97;;;;;;;20.93;59.89;100029.94;4891942;29;20392;-54
2023/10/25 09:23:39;;;;;;;4.75;3.33;;;;;;;20.93;59.92;100039.84;4886272;29;20105;-54
2023/10/25 09:26:15;;;;;;;5.85;4.05;;;;;;;20.93;59.99;100035.31;4882741;29;20063;-55
2023/10/25 09:28:45;;;;;;;7.97;5.68;;;;;;;20.93;59.83;100034.47;4900453;29;20434;-56
2023/10/25 09:31:28;;;;;;;7.68;6.07;;;;;;;20.93;60.02;100029.94;4900116;29;20056;-57
2023/10/25 09:33:57;;;;;;;7.78;6.80;;;;;;;20.93;60.12;100037.16;4900168;29;20060;-56
2023/10/25 09:36:28;;;;;;;10.05;7.97;;;;;;;20.92;59.99;100027.41;4883834;29;20056;-57
2023/10/25 09:38:56;;;;;;;10.10;8.45;;;;;;;20.91;60.17;100033.81;4900503;29;20407;-56
2023/10/25 09:41:26;;;;;;;10.65;8.57;;;;;;;20.92;60.15;100038.19;4900027;29;20053;-56
2023/10/25 09:43:59;;;;;;;13.18;9.15;;;;;;;20.91;60.13;100039.19;4900334;29;20057;-56
2023/10/25 09:46:31;;;;;;;10.63;9.25;;;;;;;20.90;60.28;100038.34;4900102;29;20051;-57
2023/10/25 09:49:06;;;;;;;9.50;7.95;;;;;;;20.90;60.40;100030.28;4900230;29;20048;-57
2023/10/25 09:51:43;;;;;;;10.18;7.25;;;;;;;20.91;60.35;100031.13;4883729;29;20529;-57
2023/10/25 09:54:11;;;;;;;9.90;8.50;;;;;;;20.91;60.44;100028.44;4899840;29;20052;-57
2023/10/25 09:56:40;;;;;;;10.27;7.80;;;;;;;20.92;60.38;100032.81;4883086;29;20049;-57
2023/10/25 09:59:10;;;;;;;9.55;7.82;;;;;;;20.94;60.23;100025.41;4900125;29;20056;-58
2023/10/25 10:01:40;;;;;;;11.48;8.10;;;;;;;20.93;60.36;100021.88;4899775;29;20052;-58
2023/10/25 10:04:24;;;;;;;9.98;7.40;;;;;;;20.94;60.12;100015.50;4899743;29;20048;-59
2023/10/25 10:07:18;;;;;;;8.25;6.05;;;;;;;20.95;60.19;100017.19;4881639;29;20048;-58
2023/10/25 10:10:22;;;;;;;9.77;7.15;;;;;;;20.97;60.24;100015.16;4875195;29;20060;-58
2023/10/25 10:12:50;;;;;;;10.73;8.05;;;;;;;20.98;60.34;100010.59;4846847;29;20049;-58
2023/10/25 10:15:19;;;;;;;10.45;8.10;;;;;;;20.98;60.37;100013.31;4897671;29;20056;-58
2023/10/25 10:17:49;;;;;;;8.18;7.05;;;;;;;20.98;60.23;100007.91;4899487;29;20048;-58
2023/10/25 10:20:27;;;;;;;8.45;7.15;;;;;;;20.97;60.34;100009.78;4898963;29;20055;-59
2023/10/25 10:23:05;;;;;;;8.20;6.57;;;;;;;20.99;60.29;100012.31;4885319;29;20037;-59
2023/10/25 10:25:50;;;;;;;7.93;6.18;;;;;;;21.00;60.40;100005.94;4893226;29;20053;-60
2023/10/25 10:28:38;;;;;;;9.10;6.53;;;;;;;20.98;60.30;100008.78;4899333;29;20345;-60
2023/10/25 10:31:06;;;;;;;9.23;7.07;;;;;;;21.00;60.38;100011.31;4899412;29;20414;-60
2023/10/25 10:33:54;;;;;;;9.88;7.88;;;;;;;21.02;60.25;100006.59;4899957;29;20064;-58
2023/10/25 10:36:24;;;;;;;9.82;7.82;;;;;;;20.99;60.67;100002.41;4894140;29;20045;-58
2023/10/25 10:39:17;;;;;;;8.95;6.88;;;;;;;20.99;60.56;100004.25;4899459;29;20052;-58
2023/10/25 10:41:45;;;;;;;9.48;6.80;;;;;;;21.00;60.35;100022.06;4899342;29;20063;-58
2023/10/25 10:44:12;;;;;;;8.50;6.95;;;;;;;21.00;60.66;100019.38;4899685;29;20526;-58
2023/10/25 10:47:06;;;;;;;10.48;8.00;;;;;;;20.99;60.78;100015.84;4899501;29;20049;-58
2023/10/25 10:49:34;;;;;;;10.60;7.80;;;;;;;21.00;61.00;100014.00;4891415;29;20064;-58
2023/10/25 10:52:03;;;;;;;11.07;8.13;;;;;;;21.00;61.14;100014.00;4899605;29;20047;-58
2023/10/25 10:54:31;;;;;;;10.10;7.95;;;;;;;20.99;61.11;100010.47;4899449;29;20411;-58
2023/10/25 10:56:59;;;;;;;10.80;8.35;;;;;;;21.00;60.96;100005.94;4899234;29;20044;-58
2023/10/25 10:59:28;;;;;;;11.05;7.72;;;;;;;20.98;60.87;99992.66;4898892;29;20048;-58
2023/10/25 11:01:56;;;;;;;10.85;8.05;;;;;;;21.01;60.94;99994.16;4899117;29;20496;-60
2023/10/25 11:04:23;;;;;;;9.30;7.78;;;;;;;21.05;60.79;99986.59;4899183;29;20044;-59
2023/10/25 11:06:51;;;;;;;13.23;7.50;;;;;;;21.07;60.91;99990.81;4898784;29;20483;-60
2023/10/25 11:09:18;;;;;;;12.05;8.02;;;;;;;21.10;60.89;99985.09;4899082;29;20049;-61
2023/10/25 11:11:46;;;;;;;10.13;7.70;;;;;;;21.15;60.80;99984.63;4898610;29;20433;-61
2023/10/25 11:14:13;;;;;;;11.63;8.60;;;;;;;21.17;61.06;99983.44;4898674;29;20049;-59
2023/10/25 11:16:41;;;;;;;10.45;8.20;;;;;;;21.15;61.17;99961.22;4882188;29;20040;-57
2023/10/25 11:19:09;;;;;;;9.43;7.88;;;;;;;21.13;61.03;99965.94;4898475;29;20060;-57
2023/10/25 11:21:36;;;;;;;9.15;6.45;;;;;;;21.14;60.86;99954.16;4897044;29;20056;-57
2023/10/25 11:24:06;;;;;;;11.32;6.93;;;;;;;21.13;60.82;99959.69;4880664;29;20064;-57
2023/10/25 11:26:40;;;;;;;10.80;7.90;;;;;;;21.11;61.11;99957.19;4892945;29;20071;-57
2023/10/25 11:29:08;;;;;;;9.23;6.97;;;;;;;21.11;61.03;99959.88;4897836;29;20057;-57
2023/10/25 11:31:35;;;;;;;10.65;8.38;;;;;;;21.10;61.38;99965.41;4880750;29;20052;-57
2023/10/25 11:34:03;;;;;;;8.57;6.60;;;;;;;21.10;61.26;99965.41;4898423;29;20044;-57
2023/10/25 11:36:31;;;;;;;8.18;5.57;;;;;;;21.09;60.97;99961.88;4898152;29;20411;-57
2023/10/25 11:39:06;;;;;;;9.45;6.40;;;;;;;21.09;60.91;99964.56;4881343;29;20060;-57